Time;durP1;ratioP1;P1;durP2;ratioP2;P2;SDS_P1;SDS_P2;PMS_P1;PMS_P2;Temp;Humidity;BMP_temperature;BMP_pressure;BME280_temperature;BME280_humidity;BME280_pressure;Samples;Min_cycle;Max_cycle;Signal;HPM_P1;HPM_P2
2022/03/25 00:02:20;;;;;;;77.20;36.80;;;;;;;;;;5051392;28;20048;-66
2022/03/25 00:04:46;;;;;;;68.25;35.85;;;;;;;;;;5052719;28;20029;-67
2022/03/25 00:07:12;;;;;;;67.28;36.47;;;;;;;;;;5051344;28;20039;-66
2022/03/25 00:09:38;;;;;;;70.35;37.30;;;;;;;;;;5052400;28;20040;-67
2022/03/25 00:12:05;;;;;;;70.05;37.17;;;;;;;;;;5052911;28;20029;-67
2022/03/25 00:14:31;;;;;;;74.05;38.13;;;;;;;;;;5054623;28;20054;-67
2022/03/25 00:16:57;;;;;;;63.30;35.60;;;;;;;;;;5056647;28;20029;-66
2022/03/25 00:19:24;;;;;;;72.95;35.80;;;;;;;;;;5056532;28;20033;-66
2022/03/25 00:21:50;;;;;;;71.75;35.30;;;;;;;;;;5056611;28;20025;-67
2022/03/25 00:24:17;;;;;;;61.75;33.40;;;;;;;;;;5056320;28;20118;-67
2022/03/25 00:26:43;;;;;;;67.50;33.28;;;;;;;;;;5056385;28;20032;-65
2022/03/25 00:29:09;;;;;;;61.08;32.55;;;;;;;;;;5056317;28;20029;-65
2022/03/25 00:31:35;;;;;;;60.60;31.55;;;;;;;;;;5056292;28;20382;-65
2022/03/25 00:34:02;;;;;;;61.90;31.55;;;;;;;;;;5056495;28;20111;-65
2022/03/25 00:36:28;;;;;;;52.85;29.75;;;;;;;;;;5056245;28;20112;-65
2022/03/25 00:38:54;;;;;;;59.20;30.70;;;;;;;;;;5056353;28;20052;-65
2022/03/25 00:41:23;;;;;;;56.95;29.20;;;;;;;;;;5054895;28;20498;-64
2022/03/25 00:43:50;;;;;;;54.45;28.23;;;;;;;;;;5080959;28;20044;-65
2022/03/25 00:46:16;;;;;;;59.30;29.15;;;;;;;;;;5095943;28;20463;-65
2022/03/25 00:48:43;;;;;;;49.90;27.30;;;;;;;;;;5096310;28;20184;-65
2022/03/25 00:51:10;;;;;;;59.92;27.98;;;;;;;;;;5096209;28;20027;-65
2022/03/25 00:53:36;;;;;;;53.38;29.08;;;;;;;;;;5095928;28;20528;-65
2022/03/25 00:56:03;;;;;;;47.85;26.38;;;;;;;;;;5095808;28;20028;-65
2022/03/25 00:58:30;;;;;;;42.75;27.58;;;;;;;;;;5095834;28;20058;-66
2022/03/25 01:00:56;;;;;;;52.88;26.95;;;;;;;;;;5096008;28;20035;-65
2022/03/25 01:03:23;;;;;;;53.97;26.42;;;;;;;;;;5096276;28;20081;-65
2022/03/25 01:05:49;;;;;;;49.47;25.83;;;;;;;;;;5077669;28;20024;-68
2022/03/25 01:08:16;;;;;;;49.80;26.08;;;;;;;;;;5095889;28;20028;-71
2022/03/25 01:10:43;;;;;;;49.10;25.50;;;;;;;;;;5077655;28;20063;-69
2022/03/25 01:13:13;;;;;;;50.20;25.73;;;;;;;;;;5095834;28;20051;-70
2022/03/25 01:15:39;;;;;;;47.70;25.90;;;;;;;;;;5077263;28;20024;-70
2022/03/25 01:18:05;;;;;;;43.13;24.33;;;;;;;;;;5095692;28;20436;-67
2022/03/25 01:20:32;;;;;;;46.33;24.40;;;;;;;;;;5077417;28;20047;-67
2022/03/25 01:22:58;;;;;;;45.70;23.25;;;;;;;;;;5077430;28;20024;-66
2022/03/25 01:25:25;;;;;;;45.75;24.75;;;;;;;;;;5094893;28;20103;-63
2022/03/25 01:27:52;;;;;;;44.05;24.02;;;;;;;;;;5077285;28;20396;-64
2022/03/25 01:30:18;;;;;;;39.67;24.05;;;;;;;;;;5077284;28;20052;-64
2022/03/25 01:32:45;;;;;;;43.65;23.33;;;;;;;;;;5095489;28;20059;-64
2022/03/25 01:35:11;;;;;;;47.72;23.95;;;;;;;;;;5095357;28;20020;-64
2022/03/25 01:37:38;;;;;;;48.72;24.17;;;;;;;;;;5077187;28;20118;-64
2022/03/25 01:40:08;;;;;;;45.10;23.90;;;;;;;;;;5095291;28;20020;-64
2022/03/25 01:42:39;;;;;;;43.92;22.90;;;;;;;;;;5095072;28;20073;-63
2022/03/25 01:45:06;;;;;;;48.58;24.33;;;;;;;;;;5095317;28;20115;-62
2022/03/25 01:47:33;;;;;;;45.28;23.33;;;;;;;;;;5095123;28;20050;-63
2022/03/25 01:50:00;;;;;;;50.28;23.70;;;;;;;;;;5095322;28;20067;-63
2022/03/25 01:52:27;;;;;;;42.10;23.20;;;;;;;;;;5095052;28;20020;-64
2022/03/25 01:54:53;;;;;;;44.78;24.15;;;;;;;;;;5095312;28;20104;-65
2022/03/25 01:57:22;;;;;;;49.05;24.63;;;;;;;;;;5095023;28;20108;-65
2022/03/25 01:59:48;;;;;;;41.17;23.85;;;;;;;;;;5094930;28;20078;-67
2022/03/25 02:02:15;;;;;;;46.88;25.65;;;;;;;;;;5094885;28;20109;-66
2022/03/25 02:04:41;;;;;;;43.97;23.15;;;;;;;;;;5094803;28;20020;-64
2022/03/25 02:07:09;;;;;;;49.95;24.20;;;;;;;;;;5094759;28;20032;-65
2022/03/25 02:09:35;;;;;;;40.85;22.80;;;;;;;;;;5094660;28;20020;-65
2022/03/25 02:12:02;;;;;;;40.08;22.40;;;;;;;;;;5076207;28;20081;-64
2022/03/25 02:14:28;;;;;;;44.50;24.05;;;;;;;;;;5094333;28;20385;-64
2022/03/25 02:16:54;;;;;;;41.30;24.17;;;;;;;;;;5076420;28;20118;-65
2022/03/25 02:19:20;;;;;;;45.05;23.80;;;;;;;;;;5076328;28;20024;-65
2022/03/25 02:21:47;;;;;;;48.53;24.15;;;;;;;;;;5094500;28;20111;-65
2022/03/25 02:24:14;;;;;;;47.15;23.67;;;;;;;;;;5094448;28;20067;-64
2022/03/25 02:26:41;;;;;;;43.03;23.10;;;;;;;;;;5094532;28;20028;-65
2022/03/25 02:29:14;;;;;;;40.13;22.40;;;;;;;;;;5094347;28;20032;-65
2022/03/25 02:31:41;;;;;;;37.00;21.10;;;;;;;;;;5076125;28;20035;-64
2022/03/25 02:34:08;;;;;;;39.40;21.77;;;;;;;;;;5094540;28;20038;-64
2022/03/25 02:36:38;;;;;;;46.40;21.05;;;;;;;;;;5094307;28;20483;-65
2022/03/25 02:39:05;;;;;;;38.05;21.25;;;;;;;;;;5093417;28;20047;-64
2022/03/25 02:41:31;;;;;;;53.00;22.85;;;;;;;;;;5093878;28;20024;-64
2022/03/25 02:43:59;;;;;;;45.08;22.10;;;;;;;;;;5094005;28;20132;-66
2022/03/25 02:46:28;;;;;;;39.97;22.42;;;;;;;;;;5075963;28;20380;-65
2022/03/25 02:48:54;;;;;;;39.75;22.63;;;;;;;;;;5093973;28;20034;-65
2022/03/25 02:51:20;;;;;;;38.88;20.67;;;;;;;;;;5093931;28;20107;-64
2022/03/25 02:53:47;;;;;;;44.75;23.40;;;;;;;;;;5075648;28;20067;-64
2022/03/25 02:56:13;;;;;;;47.35;21.67;;;;;;;;;;5075596;28;20042;-64
2022/03/25 02:58:39;;;;;;;46.45;22.58;;;;;;;;;;5094084;28;20020;-64
2022/03/25 03:01:09;;;;;;;41.92;22.33;;;;;;;;;;5093784;28;20039;-64
2022/03/25 03:03:35;;;;;;;39.55;21.58;;;;;;;;;;5093747;28;20031;-68
2022/03/25 03:06:02;;;;;;;45.03;22.55;;;;;;;;;;5093596;28;20074;-66
2022/03/25 03:08:30;;;;;;;44.10;21.13;;;;;;;;;;5075537;28;20081;-68
2022/03/25 03:10:59;;;;;;;48.42;23.48;;;;;;;;;;5075403;28;20541;-67
2022/03/25 03:13:25;;;;;;;42.85;21.88;;;;;;;;;;5075368;28;20468;-68
2022/03/25 03:15:52;;;;;;;41.08;22.15;;;;;;;;;;5093521;28;20066;-66
2022/03/25 03:18:22;;;;;;;55.75;24.38;;;;;;;;;;5093522;28;20364;-67
2022/03/25 03:20:49;;;;;;;42.47;23.83;;;;;;;;;;5093466;28;20028;-68
2022/03/25 03:23:15;;;;;;;48.90;23.13;;;;;;;;;;5093413;28;20076;-67
2022/03/25 03:25:41;;;;;;;44.80;22.60;;;;;;;;;;5093567;28;20560;-67
2022/03/25 03:28:07;;;;;;;41.03;21.35;;;;;;;;;;5075241;28;20038;-66
2022/03/25 03:30:34;;;;;;;41.00;20.83;;;;;;;;;;5075143;28;20024;-65
2022/03/25 03:33:04;;;;;;;42.70;21.52;;;;;;;;;;5093289;28;20111;-64
2022/03/25 03:35:30;;;;;;;46.88;22.30;;;;;;;;;;5093343;28;20380;-64
2022/03/25 03:37:57;;;;;;;45.83;22.40;;;;;;;;;;5093268;28;20430;-66
2022/03/25 03:40:23;;;;;;;46.17;22.08;;;;;;;;;;5075023;28;20050;-66
2022/03/25 03:42:50;;;;;;;41.58;22.80;;;;;;;;;;5074931;28;20392;-65
2022/03/25 03:45:16;;;;;;;48.28;23.23;;;;;;;;;;5092867;28;20422;-65
2022/03/25 03:47:43;;;;;;;48.55;24.20;;;;;;;;;;5093052;28;20078;-65
2022/03/25 03:50:11;;;;;;;47.85;22.90;;;;;;;;;;5080623;28;20484;-64
2022/03/25 03:52:38;;;;;;;44.97;22.88;;;;;;;;;;5099853;28;20107;-64
2022/03/25 03:55:05;;;;;;;48.30;23.00;;;;;;;;;;5099539;28;20821;-65
2022/03/25 03:57:31;;;;;;;47.55;23.08;;;;;;;;;;5099825;28;20118;-64
2022/03/25 03:59:58;;;;;;;49.65;23.42;;;;;;;;;;5081584;28;20349;-64
2022/03/25 04:02:24;;;;;;;44.58;22.00;;;;;;;;;;5099766;28;20111;-65
2022/03/25 04:04:50;;;;;;;47.65;22.45;;;;;;;;;;5099450;28;20030;-65
2022/03/25 04:07:16;;;;;;;42.50;22.35;;;;;;;;;;5099685;28;20032;-65
2022/03/25 04:09:42;;;;;;;48.50;22.55;;;;;;;;;;5099687;28;20499;-65
2022/03/25 04:12:13;;;;;;;42.42;21.13;;;;;;;;;;5099718;28;20031;-65
2022/03/25 04:14:40;;;;;;;49.08;22.50;;;;;;;;;;5099625;28;20024;-65
2022/03/25 04:17:07;;;;;;;42.55;20.67;;;;;;;;;;5099654;28;20487;-66
2022/03/25 04:19:33;;;;;;;45.15;22.15;;;;;;;;;;5081364;28;20051;-66
2022/03/25 04:21:59;;;;;;;44.72;20.23;;;;;;;;;;5099550;28;20120;-66
2022/03/25 04:24:25;;;;;;;48.95;21.65;;;;;;;;;;5099534;28;20089;-66
2022/03/25 04:26:51;;;;;;;43.72;23.00;;;;;;;;;;5099255;28;20430;-66
2022/03/25 04:29:18;;;;;;;45.80;20.88;;;;;;;;;;5081294;28;20028;-64
2022/03/25 04:31:45;;;;;;;47.85;24.73;;;;;;;;;;5081241;28;20345;-64
2022/03/25 04:34:11;;;;;;;42.22;22.75;;;;;;;;;;5099460;28;20028;-66
2022/03/25 04:36:37;;;;;;;41.50;21.63;;;;;;;;;;5099387;28;20032;-65
2022/03/25 04:39:04;;;;;;;58.15;23.20;;;;;;;;;;5081307;28;20031;-65
2022/03/25 04:41:30;;;;;;;46.97;22.35;;;;;;;;;;5081203;28;20434;-67
2022/03/25 04:43:57;;;;;;;45.22;22.52;;;;;;;;;;5080770;28;20044;-69
2022/03/25 04:46:23;;;;;;;40.45;21.73;;;;;;;;;;5099258;28;20024;-70
2022/03/25 04:48:49;;;;;;;53.30;21.92;;;;;;;;;;5099349;28;20081;-68
2022/03/25 04:51:16;;;;;;;43.95;21.70;;;;;;;;;;5099281;28;20035;-67
2022/03/25 04:53:42;;;;;;;43.20;22.65;;;;;;;;;;5099265;28;20063;-67
2022/03/25 04:56:09;;;;;;;43.45;21.95;;;;;;;;;;5099158;28;20034;-66
2022/03/25 04:58:38;;;;;;;49.90;22.25;;;;;;;;;;5099270;28;20032;-65
2022/03/25 05:01:04;;;;;;;46.92;23.02;;;;;;;;;;5077759;28;20024;-67
2022/03/25 05:03:30;;;;;;;51.17;21.65;;;;;;;;;;5095969;28;20058;-67
2022/03/25 05:05:57;;;;;;;44.35;20.90;;;;;;;;;;5095636;28;20385;-66
2022/03/25 05:08:23;;;;;;;52.55;21.30;;;;;;;;;;5077786;28;20096;-67
2022/03/25 05:10:49;;;;;;;40.42;21.65;;;;;;;;;;5096149;28;20031;-66
2022/03/25 05:13:15;;;;;;;51.15;23.85;;;;;;;;;;5095819;28;20082;-69
2022/03/25 05:15:42;;;;;;;45.33;23.17;;;;;;;;;;5095763;28;20024;-67
2022/03/25 05:18:08;;;;;;;37.83;21.05;;;;;;;;;;5095714;28;20026;-67
2022/03/25 05:20:35;;;;;;;48.05;21.83;;;;;;;;;;5077474;28;20362;-69
2022/03/25 05:23:01;;;;;;;39.63;21.17;;;;;;;;;;5095643;28;20113;-64
2022/03/25 05:25:27;;;;;;;44.72;21.30;;;;;;;;;;5095570;28;20020;-68
2022/03/25 05:27:55;;;;;;;45.30;22.02;;;;;;;;;;5095194;28;20020;-67
2022/03/25 05:30:26;;;;;;;50.88;23.30;;;;;;;;;;5095466;28;20039;-67
2022/03/25 05:33:17;;;;;;;42.38;23.65;;;;;;;;;;5095387;28;20024;-65
2022/03/25 05:35:43;;;;;;;46.47;23.47;;;;;;;;;;5095427;28;20036;-67
2022/03/25 05:38:10;;;;;;;52.03;23.85;;;;;;;;;;5076699;28;20024;-68
2022/03/25 05:40:36;;;;;;;53.47;25.20;;;;;;;;;;5075623;28;20039;-67
2022/03/25 05:43:02;;;;;;;49.25;23.33;;;;;;;;;;5093843;28;20051;-64
2022/03/25 05:45:29;;;;;;;47.22;23.75;;;;;;;;;;5088448;28;20508;-65
2022/03/25 05:47:55;;;;;;;46.20;22.75;;;;;;;;;;5075529;28;20032;-65
2022/03/25 05:50:22;;;;;;;43.78;22.10;;;;;;;;;;5093787;28;20150;-68
2022/03/25 05:52:49;;;;;;;55.63;22.35;;;;;;;;;;5072919;28;20035;-69
2022/03/25 05:55:16;;;;;;;48.95;22.75;;;;;;;;;;5093652;28;20102;-66
2022/03/25 05:57:43;;;;;;;43.95;22.67;;;;;;;;;;5074885;28;20043;-68
2022/03/25 06:00:09;;;;;;;58.35;25.05;;;;;;;;;;5087729;28;20058;-68
2022/03/25 06:02:36;;;;;;;62.80;26.90;;;;;;;;;;5093589;28;20024;-67
2022/03/25 06:05:02;;;;;;;62.55;27.55;;;;;;;;;;5093403;28;20024;-64
2022/03/25 06:07:35;;;;;;;52.25;24.95;;;;;;;;;;5076235;28;20107;-64
2022/03/25 06:10:01;;;;;;;57.45;25.98;;;;;;;;;;5094777;28;20129;-65
2022/03/25 06:12:27;;;;;;;46.75;26.23;;;;;;;;;;5094181;28;20471;-65
2022/03/25 06:14:53;;;;;;;48.50;24.80;;;;;;;;;;5076058;28;20028;-65
2022/03/25 06:17:20;;;;;;;48.63;25.90;;;;;;;;;;5094501;28;20032;-65
2022/03/25 06:19:46;;;;;;;49.05;25.33;;;;;;;;;;5094555;28;20080;-66
2022/03/25 06:22:12;;;;;;;48.75;25.00;;;;;;;;;;5094325;28;20405;-65
2022/03/25 06:24:38;;;;;;;46.83;23.35;;;;;;;;;;5075990;28;20028;-64
2022/03/25 06:27:05;;;;;;;51.95;25.83;;;;;;;;;;5094364;28;20028;-64
2022/03/25 06:29:31;;;;;;;44.38;24.17;;;;;;;;;;5094316;28;20036;-64
2022/03/25 06:31:58;;;;;;;47.35;24.13;;;;;;;;;;5093844;28;20024;-64
2022/03/25 06:34:24;;;;;;;46.92;24.00;;;;;;;;;;5075703;28;20040;-64
2022/03/25 06:36:50;;;;;;;41.90;23.15;;;;;;;;;;5094227;28;20032;-64
2022/03/25 06:39:17;;;;;;;46.30;24.63;;;;;;;;;;5094115;28;20103;-64
2022/03/25 06:41:43;;;;;;;45.22;24.95;;;;;;;;;;5093672;28;20380;-64
2022/03/25 06:44:09;;;;;;;48.63;23.98;;;;;;;;;;5093944;28;20048;-64
2022/03/25 06:46:36;;;;;;;49.78;23.05;;;;;;;;;;5093487;28;20530;-65
2022/03/25 06:49:03;;;;;;;43.97;23.63;;;;;;;;;;5093867;28;20032;-64
2022/03/25 06:51:29;;;;;;;51.15;24.42;;;;;;;;;;5075634;28;20407;-65
2022/03/25 06:53:56;;;;;;;49.42;27.08;;;;;;;;;;5075443;28;20024;-68
2022/03/25 06:56:22;;;;;;;54.50;26.35;;;;;;;;;;5093750;28;20036;-65
2022/03/25 06:58:49;;;;;;;55.97;27.45;;;;;;;;;;5093685;28;20028;-64
2022/03/25 07:01:16;;;;;;;59.47;28.77;;;;;;;;;;5075364;28;20123;-64
2022/03/25 07:03:43;;;;;;;57.25;29.80;;;;;;;;;;5093548;28;20024;-65
2022/03/25 07:06:10;;;;;;;63.78;29.17;;;;;;;;;;5093446;28;20115;-65
2022/03/25 07:08:36;;;;;;;61.53;28.92;;;;;;;;;;5075433;28;20024;-64
2022/03/25 07:11:02;;;;;;;61.97;27.83;;;;;;;;;;5075014;28;20468;-65
2022/03/25 07:13:29;;;;;;;53.08;23.83;;;;;;;;;;5093499;28;20052;-65
2022/03/25 07:15:55;;;;;;;38.03;21.05;;;;;;;;;;5093423;28;20111;-64
2022/03/25 07:18:21;;;;;;;36.28;21.95;;;;;;;;;;5074914;28;20679;-65
2022/03/25 07:20:47;;;;;;;40.60;21.52;;;;;;;;;;5092968;28;20074;-65
2022/03/25 07:23:13;;;;;;;37.80;20.75;;;;;;;;;;5092749;28;20042;-66
2022/03/25 07:25:40;;;;;;;37.08;20.13;;;;;;;;;;5092966;28;20036;-65
2022/03/25 07:28:07;;;;;;;40.42;21.73;;;;;;;;;;5092723;28;20040;-66
2022/03/25 07:30:34;;;;;;;34.88;19.60;;;;;;;;;;5092740;28;20083;-64
2022/03/25 07:33:00;;;;;;;36.17;20.95;;;;;;;;;;5092932;28;20502;-65
2022/03/25 07:35:26;;;;;;;40.17;19.95;;;;;;;;;;5093281;28;20451;-65
2022/03/25 07:37:53;;;;;;;36.55;19.13;;;;;;;;;;5093033;28;20380;-65
2022/03/25 07:40:19;;;;;;;42.65;19.58;;;;;;;;;;5075054;28;20114;-68
2022/03/25 07:42:46;;;;;;;30.90;17.10;;;;;;;;;;5074114;28;20051;-66
2022/03/25 07:45:16;;;;;;;32.80;17.50;;;;;;;;;;5071791;28;20019;-67
2022/03/25 07:47:43;;;;;;;40.53;19.70;;;;;;;;;;5074313;28;20038;-67
2022/03/25 07:50:11;;;;;;;25.83;14.95;;;;;;;;;;5092832;28;20043;-67
2022/03/25 07:52:37;;;;;;;33.83;16.80;;;;;;;;;;5093080;28;20067;-67
2022/03/25 07:55:03;;;;;;;27.90;14.32;;;;;;;;;;5074886;28;20116;-67
2022/03/25 07:57:30;;;;;;;27.50;14.00;;;;;;;;;;5093088;28;20034;-67
2022/03/25 07:59:57;;;;;;;26.15;13.50;;;;;;;;;;5074610;28;20020;-66
2022/03/25 08:02:23;;;;;;;21.95;13.60;;;;;;;;;;5092652;28;20493;-66
2022/03/25 08:04:49;;;;;;;23.40;14.13;;;;;;;;;;5092420;28;20054;-64
2022/03/25 08:07:15;;;;;;;24.45;12.77;;;;;;;;;;5092764;28;20452;-67
2022/03/25 08:09:41;;;;;;;31.52;14.05;;;;;;;;;;5092928;28;20032;-65
2022/03/25 08:12:08;;;;;;;25.48;12.43;;;;;;;;;;5092824;28;20032;-65
2022/03/25 08:14:34;;;;;;;23.48;13.35;;;;;;;;;;5092745;28;20034;-65
2022/03/25 08:17:01;;;;;;;22.35;11.90;;;;;;;;;;5092679;28;20480;-65
2022/03/25 08:19:26;;;;;;;20.35;12.48;;;14.30;56.60;;;;;;5092559;28;20222;-65
2022/03/25 08:21:52;;;;;;;21.92;12.00;;;14.50;57.90;;;;;;5093023;28;20068;-64
2022/03/25 08:29:47;;;;;;;23.70;11.15;;;15.20;60.60;;;;;;5092523;28;20096;-67
2022/03/25 08:32:13;;;;;;;23.58;13.05;;;15.20;56.20;;;;;;5092691;28;20024;-64
2022/03/25 08:34:39;;;;;;;16.48;10.63;;;15.30;57.20;;;;;;5074286;28;20034;-65
2022/03/25 08:37:05;;;;;;;21.60;11.52;;;;;;;;;;5095328;28;20032;-65
2022/03/25 08:39:31;;;;;;;26.83;12.30;;;15.40;56.50;;;;;;5096189;28;20089;-65
2022/03/25 08:41:57;;;;;;;20.73;11.90;;;16.00;57.20;;;;;;5096345;28;20107;-65
2022/03/25 08:44:22;;;;;;;18.98;11.32;;;16.20;56.20;;;;;;5095785;28;20407;-65
2022/03/25 08:46:48;;;;;;;26.08;12.20;;;16.10;55.70;;;;;;5096210;28;20085;-65
2022/03/25 08:49:14;;;;;;;19.95;11.10;;;16.10;55.60;;;;;;5096225;28;20032;-65
2022/03/25 08:51:41;;;;;;;19.08;10.10;;;;;;;;;;5077680;28;20028;-65
2022/03/25 08:54:09;;;;;;;17.17;9.73;;;16.30;54.90;;;;;;5096408;28;20368;-65
2022/03/25 08:56:35;;;;;;;16.98;9.93;;;;;;;;;;5075899;28;20085;-65
2022/03/25 08:59:01;;;;;;;13.02;9.80;;;;;;;;;;5077664;28;20040;-66
2022/03/25 09:01:28;;;;;;;14.55;10.10;;;;;;;;;;5095896;28;20028;-65
2022/03/25 09:03:55;;;;;;;15.48;10.20;;;;;;;;;;5095378;28;20020;-67
2022/03/25 09:06:20;;;;;;;14.88;8.55;;;16.80;55.10;;;;;;5095996;28;20035;-66
2022/03/25 09:08:46;;;;;;;16.88;10.10;;;17.10;51.00;;;;;;5076314;28;20045;-67
2022/03/25 09:11:12;;;;;;;20.10;8.75;;;17.20;51.60;;;;;;5095695;28;20032;-66
2022/03/25 09:13:40;;;;;;;20.45;8.82;;;17.40;51.60;;;;;;5095646;28;20020;-66
2022/03/25 09:16:07;;;;;;;30.70;20.10;;;;;;;;;;5095769;28;20376;-65
2022/03/25 09:18:33;;;;;;;20.70;10.15;;;17.50;49.80;;;;;;5094532;28;20023;-65
2022/03/25 09:20:59;;;;;;;19.58;10.32;;;17.80;50.70;;;;;;5094221;28;20024;-70
2022/03/25 09:23:24;;;;;;;20.20;12.18;;;17.90;50.70;;;;;;5072205;28;20122;-66
2022/03/25 09:25:50;;;;;;;13.98;9.27;;;18.10;51.90;;;;;;5094836;28;20028;-65
2022/03/25 09:28:16;;;;;;;16.58;8.75;;;18.20;51.60;;;;;;5095543;28;20031;-64
2022/03/25 09:30:42;;;;;;;12.90;8.98;;;18.20;48.70;;;;;;5085265;28;20039;-66
2022/03/25 09:33:09;;;;;;;14.88;8.77;;;18.30;48.80;;;;;;5095176;28;20444;-65
2022/03/25 09:35:36;;;;;;;13.50;8.23;;;18.40;48.70;;;;;;5094691;28;20480;-67
2022/03/25 09:38:02;;;;;;;14.48;10.77;;;18.30;49.70;;;;;;5095040;28;20650;-65
2022/03/25 09:40:28;;;;;;;18.23;13.88;;;18.40;48.00;;;;;;5095487;28;20491;-66
2022/03/25 09:42:55;;;;;;;33.40;17.98;;;18.60;48.60;;;;;;5093337;28;20514;-66
2022/03/25 09:45:22;;;;;;;12.32;7.75;;;18.70;48.10;;;;;;5093636;28;20028;-66
2022/03/25 09:47:50;;;;;;;13.27;7.55;;;19.10;49.60;;;;;;5092630;28;20136;-66
2022/03/25 09:50:21;;;;;;;13.68;7.22;;;19.40;60.90;;;;;;5094164;28;20024;-66
2022/03/25 09:52:49;;;;;;;13.52;6.60;;;19.50;56.20;;;;;;5076735;28;20051;-66
2022/03/25 09:55:14;;;;;;;12.90;7.00;;;19.80;50.10;;;;;;5094828;28;20066;-68
2022/03/25 09:57:41;;;;;;;16.60;7.50;;;20.00;46.70;;;;;;5094840;28;20056;-67
2022/03/25 10:00:11;;;;;;;13.07;6.85;;;19.70;45.70;;;;;;5093409;28;20026;-67
2022/03/25 10:02:37;;;;;;;14.57;6.68;;;19.90;47.50;;;;;;5094880;28;20066;-68
2022/03/25 10:05:19;;;;;;;12.60;7.43;;;19.80;46.00;;;;;;5094517;28;20110;-65
2022/03/25 10:07:55;;;;;;;16.02;7.90;;;20.20;46.90;;;;;;5094588;28;20044;-65
2022/03/25 10:10:26;;;;;;;11.68;6.45;;;20.50;47.00;;;;;;5092190;28;20015;-65
2022/03/25 10:12:52;;;;;;;;;;;;;;;;;;5094983;28;20028;-65
2022/03/25 10:15:22;;;;;;;14.77;6.55;;;20.70;45.20;;;;;;5094695;28;20256;-67
2022/03/25 10:17:59;;;;;;;11.85;6.60;;;20.50;44.80;;;;;;5094476;28;20090;-66
2022/03/25 10:20:31;;;;;;;10.20;6.55;;;20.50;45.90;;;;;;5094436;28;20035;-66
2022/03/25 10:22:58;;;;;;;9.90;6.25;;;;;;;;;;5076361;28;20051;-68
2022/03/25 10:25:38;;;;;;;12.45;5.95;;;;;;;;;;5094359;28;20028;-63
2022/03/25 10:28:18;;;;;;;14.38;6.80;;;20.50;46.20;;;;;;5094233;28;20039;-66
2022/03/25 10:30:44;;;;;;;10.68;6.32;;;21.60;44.10;;;;;;5094275;28;20107;-67
2022/03/25 10:33:45;;;;;;;15.85;7.15;;;21.40;44.10;;;;;;5094267;28;20024;-65
2022/03/25 10:36:14;;;;;;;10.77;6.35;;;21.70;43.70;;;;;;5087627;28;20377;-65
2022/03/25 10:38:55;;;;;;;12.95;6.45;;;22.10;42.70;;;;;;5093110;28;20028;-66
2022/03/25 10:41:35;;;;;;;16.50;6.82;;;22.70;43.70;;;;;;5094196;28;20031;-64
2022/03/25 10:44:05;;;;;;;15.10;6.13;;;23.40;42.40;;;;;;5093602;28;20493;-67
2022/03/25 10:46:34;;;;;;;16.65;6.03;;;24.20;42.40;;;;;;5093946;28;20040;-67
2022/03/25 10:49:01;;;;;;;11.50;6.18;;;25.20;42.20;;;;;;5093925;28;20055;-66
2022/03/25 10:51:27;;;;;;;7.50;5.43;;;25.90;43.40;;;;;;5093964;28;20023;-67
2022/03/25 10:54:03;;;;;;;10.65;5.90;;;26.00;40.70;;;;;;5093776;28;20059;-67
2022/03/25 10:56:45;;;;;;;11.13;5.95;;;27.30;38.60;;;;;;5093509;28;20396;-67
2022/03/25 10:59:25;;;;;;;11.10;5.80;;;27.80;37.80;;;;;;5092787;28;20028;-67
2022/03/25 11:01:53;;;;;;;9.35;5.68;;;28.30;36.70;;;;;;5093760;28;20024;-65
2022/03/25 11:04:19;;;;;;;8.80;5.85;;;27.90;36.50;;;;;;5093617;28;20039;-65
2022/03/25 11:06:46;;;;;;;10.50;5.60;;;28.30;37.90;;;;;;5075362;28;20036;-65
2022/03/25 11:09:13;;;;;;;8.52;5.70;;;28.00;36.60;;;;;;5091348;28;20024;-66
2022/03/25 11:11:42;;;;;;;18.33;7.35;;;27.60;36.90;;;;;;5093395;28;20024;-65
2022/03/25 11:14:09;;;;;;;12.93;6.90;;;27.50;36.20;;;;;;5093295;28;20059;-67
2022/03/25 11:16:39;;;;;;;14.55;8.07;;;28.00;36.70;;;;;;5093583;28;20071;-67
2022/03/25 11:19:08;;;;;;;9.15;5.72;;;28.60;35.90;;;;;;5074833;28;20027;-67
2022/03/25 11:21:39;;;;;;;13.48;6.32;;;29.30;35.70;;;;;;5092662;28;20422;-67
2022/03/25 11:24:13;;;;;;;11.80;6.97;;;29.80;36.20;;;;;;5093220;28;20081;-67
2022/03/25 11:26:42;;;;;;;9.02;6.45;;;30.10;35.10;;;;;;5093181;28;20181;-66
2022/03/25 11:29:12;;;;;;;10.23;5.72;;;31.00;35.50;;;;;;5075013;28;20024;-64
2022/03/25 11:32:03;;;;;;;27.50;6.45;;;31.70;34.50;;;;;;5075044;28;20028;-66
2022/03/25 11:34:29;;;;;;;9.77;6.00;;;32.30;35.00;;;;;;5093107;28;20063;-72
2022/03/25 11:37:19;;;;;;;10.40;6.22;;;32.10;34.20;;;;;;5093138;28;20043;-67
2022/03/25 11:40:25;;;;;;;12.27;7.05;;;30.70;33.00;;;;;;5092930;28;20024;-66
2022/03/25 11:42:59;;;;;;;8.60;6.07;;;29.40;33.70;;;;;;5092926;28;20051;-66
2022/03/25 11:45:35;;;;;;;9.80;6.53;;;29.10;33.60;;;;;;5092767;28;20030;-66
2022/03/25 11:48:24;;;;;;;10.60;6.47;;;29.40;33.60;;;;;;5093013;28;20429;-65
2022/03/25 11:50:50;;;;;;;14.13;6.35;;;29.40;33.90;;;;;;5092838;28;20031;-66
2022/03/25 11:53:16;;;;;;;12.55;7.47;;;29.90;34.60;;;;;;5092716;28;20332;-66
2022/03/25 11:56:07;;;;;;;31.33;17.52;;;31.10;33.00;;;;;;5092951;28;20032;-65
2022/03/25 11:58:38;;;;;;;22.50;6.90;;;31.70;32.30;;;;;;5092981;28;20515;-65
2022/03/25 12:01:16;;;;;;;13.95;5.75;;;30.50;32.30;;;;;;5092992;28;20136;-65
2022/03/25 12:03:49;;;;;;;8.85;5.72;;;30.20;33.10;;;;;;5092858;28;20024;-65
2022/03/25 12:06:20;;;;;;;11.13;6.32;;;31.00;32.80;;;;;;5092692;28;20016;-65
2022/03/25 12:08:56;;;;;;;9.80;6.60;;;31.40;33.10;;;;;;5092649;28;20091;-66
2022/03/25 12:11:51;;;;;;;16.20;6.35;;;31.70;33.00;;;;;;5096486;28;20566;-65
2022/03/25 12:14:21;;;;;;;10.18;5.70;;;33.40;32.30;;;;;;5085665;28;20036;-66
2022/03/25 12:16:47;;;;;;;7.35;5.70;;;33.20;32.30;;;;;;5097008;28;20028;-66
2022/03/25 12:19:41;;;;;;;11.30;5.70;;;33.70;31.90;;;;;;5096582;28;20456;-66
2022/03/25 12:22:18;;;;;;;10.93;5.93;;;32.80;31.40;;;;;;5096827;28;20031;-67
2022/03/25 12:24:45;;;;;;;9.70;5.72;;;33.50;31.20;;;;;;5096668;28;20054;-65
2022/03/25 12:27:11;;;;;;;9.90;5.45;;;32.40;31.00;;;;;;5096612;28;20031;-65
2022/03/25 12:29:39;;;;;;;7.20;5.38;;;31.80;31.50;;;;;;5096309;28;20035;-66
2022/03/25 12:32:10;;;;;;;13.80;6.25;;;31.10;31.90;;;;;;5096923;28;20032;-66
2022/03/25 12:34:58;;;;;;;15.18;5.85;;;31.20;39.70;;;;;;5096576;28;20035;-66
2022/03/25 12:38:03;;;;;;;15.25;6.45;;;31.50;31.80;;;;;;5096800;28;20024;-66
2022/03/25 12:40:34;;;;;;;10.00;6.60;;;32.50;31.50;;;;;;5096574;28;20032;-66
2022/03/25 12:43:05;;;;;;;11.35;7.20;;;32.30;32.30;;;;;;5077988;28;20490;-66
2022/03/25 12:45:35;;;;;;;9.00;5.97;;;32.80;31.50;;;;;;5096228;28;20383;-67
2022/03/25 12:48:23;;;;;;;10.25;6.00;;;33.20;31.30;;;;;;5094136;28;20036;-66
2022/03/25 12:50:54;;;;;;;13.05;6.07;;;34.70;31.80;;;;;;5087290;28;20017;-66
2022/03/25 12:53:28;;;;;;;10.77;6.75;;;35.30;31.50;;;;;;5076046;28;20029;-66
2022/03/25 12:55:54;;;;;;;11.15;6.88;;;34.80;30.40;;;;;;5095190;28;20495;-66
2022/03/25 12:58:22;;;;;;;10.95;6.82;;;34.20;30.00;;;;;;5095955;28;20058;-66
2022/03/25 13:00:51;;;;;;;9.93;5.90;;;34.00;30.60;;;;;;5095967;28;20103;-66
2022/03/25 13:03:19;;;;;;;12.57;6.90;;;34.20;30.70;;;;;;5096015;28;20024;-66
2022/03/25 13:05:46;;;;;;;7.72;5.80;;;34.00;30.70;;;;;;5077606;28;20024;-66
2022/03/25 13:08:12;;;;;;;9.13;6.07;;;34.80;30.70;;;;;;5077611;28;20040;-66
2022/03/25 13:10:40;;;;;;;8.68;5.57;;;34.70;30.80;;;;;;5096125;28;20028;-66
2022/03/25 13:13:08;;;;;;;8.90;6.07;;;35.20;43.00;;;;;;5095623;28;20152;-66
2022/03/25 13:15:36;;;;;;;8.35;6.38;;;35.80;30.40;;;;;;5095726;28;20414;-66
2022/03/25 13:18:05;;;;;;;12.63;6.40;;;35.70;29.70;;;;;;5095732;28;20036;-67
2022/03/25 13:20:36;;;;;;;11.73;5.90;;;34.60;29.90;;;;;;5095598;28;20081;-66
2022/03/25 13:23:08;;;;;;;8.70;5.97;;;35.40;30.00;;;;;;5094945;28;20115;-66
2022/03/25 13:25:39;;;;;;;10.02;7.50;;;35.40;30.00;;;;;;5077422;28;20082;-66
2022/03/25 13:28:06;;;;;;;;;;;34.50;30.00;;;;;;5095792;28;20028;-66
2022/03/25 13:30:33;;;;;;;8.15;6.10;;;34.90;30.60;;;;;;5095502;28;20030;-65
2022/03/25 13:33:06;;;;;;;8.85;6.63;;;36.10;30.70;;;;;;5077288;28;20031;-67
2022/03/25 13:35:53;;;;;;;10.98;8.63;;;35.90;30.30;;;;;;5095229;28;20036;-66
2022/03/25 13:38:22;;;;;;;13.27;7.07;;;35.70;29.70;;;;;;5094449;28;20109;-66
2022/03/25 13:40:57;;;;;;;10.20;6.25;;;36.30;30.00;;;;;;5095296;28;20024;-66
2022/03/25 13:43:32;;;;;;;10.50;5.88;;;36.70;30.00;;;;;;5094857;28;20048;-66
2022/03/25 13:46:02;;;;;;;9.80;5.70;;;36.50;30.00;;;;;;5095194;28;20035;-68
2022/03/25 13:48:45;;;;;;;11.48;5.65;;;37.20;29.90;;;;;;5095079;28;20111;-66
2022/03/25 13:51:25;;;;;;;13.10;7.10;;;37.40;31.30;;;;;;5095425;28;20453;-67
2022/03/25 13:54:07;;;;;;;10.98;6.47;;;37.40;30.30;;;;;;5094698;28;20028;-66